Time;durP1;ratioP1;P1;durP2;ratioP2;P2;SDS_P1;SDS_P2;PMS_P1;PMS_P2;Temp;Humidity;BMP_temperature;BMP_pressure;BME280_temperature;BME280_humidity;BME280_pressure;Samples;Min_cycle;Max_cycle;Signal;HPM_P1;HPM_P2
2023/12/18 00:02:01;;;;;;;15.20;9.38;;;;;;;4.71;100.00;103216.84;5070230;28;20041;-71
2023/12/18 00:04:28;;;;;;;16.15;9.00;;;;;;;4.76;100.00;103210.03;5062329;28;20479;-71
2023/12/18 00:06:55;;;;;;;14.93;9.35;;;;;;;4.80;100.00;103212.78;5084564;28;20500;-71
2023/12/18 00:09:22;;;;;;;16.08;9.60;;;;;;;4.83;100.00;103209.41;5066279;28;20044;-71
2023/12/18 00:11:49;;;;;;;15.15;8.95;;;;;;;4.86;100.00;103203.38;5068033;28;20052;-71
2023/12/18 00:14:16;;;;;;;16.75;9.40;;;;;;;4.89;100.00;103203.47;5066904;28;20032;-71
2023/12/18 00:16:43;;;;;;;16.10;9.38;;;;;;;4.94;100.00;103201.88;5069875;28;20056;-71
2023/12/18 00:19:11;;;;;;;15.60;9.10;;;;;;;4.97;100.00;103197.63;5072642;28;20066;-71
2023/12/18 00:21:38;;;;;;;17.15;9.77;;;;;;;5.00;100.00;103190.75;5085683;28;20044;-71
2023/12/18 00:24:05;;;;;;;18.92;9.43;;;;;;;5.03;100.00;103180.38;5069373;28;20135;-71
2023/12/18 00:26:32;;;;;;;15.18;10.23;;;;;;;5.05;100.00;103181.28;5058496;28;20040;-72
2023/12/18 00:28:59;;;;;;;20.00;10.30;;;;;;;5.06;100.00;103178.75;5068799;28;20484;-71
2023/12/18 00:31:26;;;;;;;18.73;10.07;;;;;;;5.10;100.00;103172.75;5068723;28;20055;-71
2023/12/18 00:33:53;;;;;;;18.38;10.32;;;;;;;5.11;100.00;103177.13;5070870;28;20102;-72
2023/12/18 00:36:21;;;;;;;21.85;12.20;;;;;;;5.15;100.00;103172.88;5086115;28;20052;-72
2023/12/18 00:38:48;;;;;;;20.17;11.20;;;;;;;5.16;100.00;103169.44;5070362;28;20052;-72
2023/12/18 00:41:15;;;;;;;22.25;11.73;;;;;;;5.19;100.00;103169.53;5070534;28;20463;-71
2023/12/18 00:43:42;;;;;;;20.23;12.15;;;;;;;5.20;100.00;103168.69;5067503;28;20270;-71
2023/12/18 00:46:09;;;;;;;23.98;12.68;;;;;;;5.23;100.00;103162.66;5056658;28;20049;-71
2023/12/18 00:48:36;;;;;;;21.05;11.65;;;;;;;5.25;100.00;103171.44;5063792;28;20132;-70
2023/12/18 00:51:04;;;;;;;20.70;12.85;;;;;;;5.27;100.00;103162.78;5076812;28;20044;-72
2023/12/18 00:53:31;;;;;;;22.15;12.57;;;;;;;5.29;100.00;103150.66;5080095;28;20051;-71
2023/12/18 00:55:58;;;;;;;20.48;12.60;;;;;;;5.32;100.00;103144.59;5069918;28;20394;-72
2023/12/18 00:58:25;;;;;;;20.17;13.15;;;;;;;5.32;100.00;103141.13;5048296;28;20064;-72
2023/12/18 01:00:52;;;;;;;23.58;13.48;;;;;;;5.36;100.00;103153.44;5067997;28;20062;-71
2023/12/18 01:03:19;;;;;;;17.73;11.32;;;;;;;5.37;100.00;103150.88;5067022;28;20036;-72
2023/12/18 01:05:46;;;;;;;20.50;13.02;;;;;;;5.39;100.00;103153.53;5068131;28;20419;-72
2023/12/18 01:08:13;;;;;;;20.17;12.43;;;;;;;5.42;100.00;103151.00;5070309;28;20131;-72
2023/12/18 01:10:41;;;;;;;23.40;12.05;;;;;;;5.43;100.00;103152.78;5071626;28;20075;-72
2023/12/18 01:13:08;;;;;;;24.17;12.80;;;;;;;5.43;100.00;103140.56;5069388;28;20503;-71
2023/12/18 01:15:35;;;;;;;21.17;12.02;;;;;;;5.43;100.00;103156.25;5083373;28;20037;-71
2023/12/18 01:18:02;;;;;;;19.60;12.05;;;;;;;5.44;100.00;103151.94;5049539;28;20122;-71
2023/12/18 01:20:29;;;;;;;23.98;13.00;;;;;;;5.44;100.00;103154.56;5064074;28;20574;-71
2023/12/18 01:22:56;;;;;;;23.23;12.43;;;;;;;5.44;100.00;103150.19;5064991;28;20512;-71
2023/12/18 01:25:32;;;;;;;21.38;12.02;;;;;;;5.45;100.00;103143.22;5092913;28;20041;-71
2023/12/18 01:28:00;;;;;;;25.35;13.13;;;;;;;5.46;100.00;103147.59;5065309;28;20114;-71
2023/12/18 01:30:27;;;;;;;26.80;12.63;;;;;;;5.48;100.00;103151.16;5079496;28;20047;-72
2023/12/18 01:32:54;;;;;;;21.45;13.13;;;;;;;5.51;100.00;103150.34;5050332;28;20052;-71
2023/12/18 01:35:21;;;;;;;22.80;12.75;;;;;;;5.50;100.00;103151.19;5087120;28;20040;-71
2023/12/18 01:37:48;;;;;;;26.80;12.57;;;;;;;5.53;100.00;103153.91;5070065;28;20072;-72
2023/12/18 01:40:15;;;;;;;22.35;12.77;;;;;;;5.53;100.00;103139.09;5068316;28;20505;-71
2023/12/18 01:42:45;;;;;;;23.48;13.05;;;;;;;5.56;100.00;103154.00;5069369;28;20036;-71
2023/12/18 01:45:13;;;;;;;24.35;13.55;;;;;;;5.57;100.00;103147.94;5083968;28;20044;-71
2023/12/18 01:47:40;;;;;;;20.52;12.88;;;;;;;5.57;100.00;103147.94;5067228;28;20052;-71
2023/12/18 01:50:08;;;;;;;24.00;14.18;;;;;;;5.56;100.00;103147.03;5065797;28;20496;-71
2023/12/18 01:52:38;;;;;;;22.88;12.95;;;;;;;5.56;100.00;103149.63;5070272;28;20040;-71
2023/12/18 01:55:07;;;;;;;24.08;14.32;;;;;;;5.55;100.00;103147.00;5068567;28;20127;-71
2023/12/18 01:57:35;;;;;;;23.77;12.88;;;;;;;5.56;100.00;103144.41;5068770;28;20052;-71
2023/12/18 02:00:05;;;;;;;23.85;13.25;;;;;;;5.57;100.00;103147.94;5067692;28;20373;-71
2023/12/18 02:02:33;;;;;;;21.08;13.15;;;;;;;5.59;100.00;103149.72;5073804;28;20090;-70
2023/12/18 02:05:01;;;;;;;21.58;12.45;;;;;;;5.63;100.00;103157.69;5081576;28;21617;-71
2023/12/18 02:07:28;;;;;;;22.80;14.00;;;;;;;5.62;100.00;103148.06;5068016;28;20044;-71
2023/12/18 02:09:55;;;;;;;23.38;12.93;;;;;;;5.63;100.00;103153.31;5067676;28;20036;-72
2023/12/18 02:12:22;;;;;;;24.05;13.85;;;;;;;5.63;100.00;103155.06;5067305;28;20040;-72
2023/12/18 02:14:50;;;;;;;24.63;14.00;;;;;;;5.62;100.00;103141.06;5063890;28;20644;-72
2023/12/18 02:17:17;;;;;;;23.30;12.00;;;;;;;5.65;100.00;103135.03;5095768;28;20575;-72
2023/12/18 02:19:44;;;;;;;25.35;13.80;;;;;;;5.66;100.00;103123.72;5067229;28;20048;-71
2023/12/18 02:22:11;;;;;;;23.27;14.05;;;;;;;5.66;100.00;103122.00;5066904;28;20285;-71
2023/12/18 02:24:38;;;;;;;23.83;13.85;;;;;;;5.67;100.00;103121.16;5068928;28;20037;-72
2023/12/18 02:27:06;;;;;;;23.50;13.98;;;;;;;5.67;100.00;103117.63;5068041;28;20054;-71
2023/12/18 02:29:33;;;;;;;21.40;13.27;;;;;;;5.68;100.00;103112.47;5066643;28;20044;-71
2023/12/18 02:32:00;;;;;;;20.75;13.48;;;;;;;5.70;100.00;103115.97;5066357;28;20743;-71
2023/12/18 02:34:27;;;;;;;22.75;13.48;;;;;;;5.70;100.00;103122.97;5066805;28;20098;-71
2023/12/18 02:37:00;;;;;;;23.98;12.95;;;;;;;5.71;100.00;103124.75;5062711;28;20049;-72
2023/12/18 02:39:27;;;;;;;27.10;14.20;;;;;;;5.73;100.00;103120.44;5056942;28;20044;-71
2023/12/18 02:41:54;;;;;;;24.15;13.57;;;;;;;5.72;100.00;103131.75;5067503;28;20063;-71
2023/12/18 02:44:21;;;;;;;26.70;14.35;;;;;;;5.70;100.00;103122.97;5065340;28;20044;-71
2023/12/18 02:46:48;;;;;;;22.52;12.95;;;;;;;5.71;100.00;103114.28;5066621;28;20067;-71
2023/12/18 02:49:15;;;;;;;21.10;14.15;;;;;;;5.70;100.00;103113.38;5077693;28;20184;-71
2023/12/18 02:51:43;;;;;;;22.52;14.00;;;;;;;5.71;100.00;103117.75;5064436;28;20071;-71
2023/12/18 02:54:10;;;;;;;24.08;14.52;;;;;;;5.71;100.00;103119.50;5061737;28;20033;-71
2023/12/18 02:56:37;;;;;;;25.02;13.77;;;;;;;5.70;100.00;103117.72;5056780;28;20040;-72
2023/12/18 02:59:04;;;;;;;22.42;15.23;;;;;;;5.70;100.00;103112.50;5066632;28;20040;-71
2023/12/18 03:01:31;;;;;;;22.52;14.05;;;;;;;5.72;100.00;103108.19;5066385;28;20049;-72
2023/12/18 03:03:58;;;;;;;21.75;13.82;;;;;;;5.73;100.00;103115.19;5081395;28;20037;-72
2023/12/18 03:06:26;;;;;;;24.95;13.98;;;;;;;5.72;100.00;103105.56;5076055;28;20123;-71
2023/12/18 03:08:53;;;;;;;26.75;15.02;;;;;;;5.73;100.00;103107.34;5066563;28;20380;-72
2023/12/18 03:11:20;;;;;;;22.75;15.05;;;;;;;5.72;100.00;103105.56;5067267;28;20044;-72
2023/12/18 03:13:47;;;;;;;21.73;14.23;;;;;;;5.71;100.00;103099.44;5082930;28;20449;-72
2023/12/18 03:16:15;;;;;;;28.90;14.85;;;;;;;5.70;100.00;103108.13;5067939;28;20496;-72
2023/12/18 03:18:42;;;;;;;22.73;13.90;;;;;;;5.69;100.00;103098.53;5065786;28;20064;-72
2023/12/18 03:21:12;;;;;;;23.67;14.65;;;;;;;5.71;100.00;103093.34;5064532;28;20504;-71
2023/12/18 03:23:39;;;;;;;23.92;15.27;;;;;;;5.72;100.00;103105.56;5056713;28;20049;-71
2023/12/18 03:26:06;;;;;;;26.40;15.18;;;;;;;5.70;100.00;103107.25;5066302;28;20071;-71
2023/12/18 03:28:33;;;;;;;23.50;14.68;;;;;;;5.71;100.00;103111.66;5073706;28;20131;-72
2023/12/18 03:31:00;;;;;;;26.25;14.93;;;;;;;5.69;100.00;103114.25;5083068;28;20484;-72
2023/12/18 03:33:27;;;;;;;22.65;14.65;;;;;;;5.70;100.00;103110.75;5085322;28;20048;-72
2023/12/18 03:35:55;;;;;;;28.33;16.25;;;;;;;5.70;100.00;103104.66;5069345;28;20056;-72
2023/12/18 03:38:22;;;;;;;25.38;15.80;;;;;;;5.69;100.00;103098.53;5071103;28;20048;-72
2023/12/18 03:40:49;;;;;;;28.33;15.50;;;;;;;5.68;100.00;103102.00;5071310;28;20071;-72
2023/12/18 03:43:16;;;;;;;27.38;15.23;;;;;;;5.69;100.00;103089.78;5086446;28;20040;-72
2023/12/18 03:45:43;;;;;;;21.50;15.35;;;;;;;5.68;100.00;103098.47;5079350;28;20043;-72
2023/12/18 03:48:10;;;;;;;25.15;14.70;;;;;;;5.68;100.00;103091.53;5079028;28;20458;-72
2023/12/18 03:50:38;;;;;;;29.30;15.80;;;;;;;5.70;100.00;103099.41;5070003;28;20040;-72
2023/12/18 03:53:05;;;;;;;27.23;16.13;;;;;;;5.68;100.00;103103.72;5072115;28;20037;-71
2023/12/18 03:55:34;;;;;;;23.80;14.68;;;;;;;5.68;100.00;103091.53;5086161;28;20127;-73
2023/12/18 03:58:01;;;;;;;28.80;15.43;;;;;;;5.71;100.00;103104.66;5071130;28;20040;-72
2023/12/18 04:00:28;;;;;;;27.70;16.10;;;;;;;5.71;100.00;103099.44;5069854;28;20044;-72
2023/12/18 04:02:55;;;;;;;29.17;17.08;;;;;;;5.71;100.00;103099.44;5068976;28;20059;-72
2023/12/18 04:05:26;;;;;;;25.73;16.98;;;;;;;5.69;100.00;103095.91;5072331;28;20127;-72
2023/12/18 04:07:53;;;;;;;24.45;16.10;;;;;;;5.71;100.00;103095.94;5070420;28;20599;-71
2023/12/18 04:10:20;;;;;;;27.25;15.98;;;;;;;5.70;100.00;103099.41;5069824;28;20050;-71
2023/12/18 04:12:47;;;;;;;27.20;16.63;;;;;;;5.71;100.00;103098.56;5069127;28;20036;-71
2023/12/18 04:15:15;;;;;;;27.92;16.55;;;;;;;5.71;100.00;103101.19;5070586;28;20051;-71
2023/12/18 04:17:42;;;;;;;25.70;16.17;;;;;;;5.70;100.00;103094.19;5071702;28;20047;-71
2023/12/18 04:20:10;;;;;;;28.90;16.77;;;;;;;5.71;100.00;103095.94;5066667;28;20136;-71
2023/12/18 04:22:37;;;;;;;29.50;16.40;;;;;;;5.70;100.00;103095.03;5069157;28;20047;-71
2023/12/18 04:25:05;;;;;;;32.55;16.98;;;;;;;5.69;100.00;103095.00;5071534;28;20128;-71
2023/12/18 04:27:32;;;;;;;26.63;16.90;;;;;;;5.70;100.00;103088.94;5070433;28;20097;-71
2023/12/18 04:29:59;;;;;;;31.20;17.17;;;;;;;5.69;100.00;103097.63;5053857;28;20455;-71
2023/12/18 04:32:26;;;;;;;27.55;17.17;;;;;;;5.69;100.00;103095.91;5076737;28;20111;-71
2023/12/18 04:34:53;;;;;;;30.00;16.40;;;;;;;5.68;100.00;103094.16;5069722;28;20063;-72
2023/12/18 04:37:21;;;;;;;32.95;17.85;;;;;;;5.68;100.00;103091.53;5071261;28;20102;-71
2023/12/18 04:39:48;;;;;;;31.70;18.13;;;;;;;5.70;100.00;103087.19;5069282;28;20045;-71
2023/12/18 04:42:15;;;;;;;30.90;16.83;;;;;;;5.69;100.00;103085.44;5070583;28;20048;-71
2023/12/18 04:44:42;;;;;;;29.67;16.63;;;;;;;5.70;100.00;103087.19;5067387;28;20084;-73
2023/12/18 04:47:09;;;;;;;32.20;17.83;;;;;;;5.70;100.00;103094.19;5067776;28;20036;-73
2023/12/18 04:49:36;;;;;;;29.83;18.05;;;;;;;5.71;100.00;103088.09;5077168;28;20044;-73
2023/12/18 04:52:04;;;;;;;31.95;18.10;;;;;;;5.72;100.00;103082.03;5084499;28;20074;-73
2023/12/18 04:54:31;;;;;;;35.53;19.00;;;;;;;5.70;100.00;103089.81;5100818;28;20492;-73
2023/12/18 04:56:59;;;;;;;30.30;17.95;;;;;;;5.71;100.00;103077.63;5084755;28;20068;-74
2023/12/18 04:59:26;;;;;;;32.20;18.27;;;;;;;5.71;100.00;103075.88;5069548;28;20047;-72
2023/12/18 05:01:53;;;;;;;31.80;20.17;;;;;;;5.71;100.00;103080.25;5065617;28;20127;-73
2023/12/18 05:04:20;;;;;;;33.78;20.55;;;;;;;5.72;100.00;103082.03;5069280;28;20136;-72
2023/12/18 05:06:47;;;;;;;30.80;18.42;;;;;;;5.71;100.00;103075.88;5084317;28;20107;-72
2023/12/18 05:09:15;;;;;;;32.63;18.67;;;;;;;5.70;100.00;103081.09;5071782;28;20052;-72
2023/12/18 05:11:42;;;;;;;37.85;19.83;;;;;;;5.69;100.00;103084.53;5083835;28;20044;-72
2023/12/18 05:14:09;;;;;;;27.50;17.75;;;;;;;5.69;100.00;103088.06;5070264;28;20086;-72
2023/12/18 05:16:36;;;;;;;32.88;17.83;;;;;;;5.69;100.00;103088.06;5069497;28;20044;-72
2023/12/18 05:19:03;;;;;;;32.90;18.17;;;;;;;5.68;100.00;103081.06;5066308;28;20126;-72
2023/12/18 05:21:30;;;;;;;38.15;19.90;;;;;;;5.69;100.00;103084.53;5068774;28;20051;-70
2023/12/18 05:23:58;;;;;;;33.05;19.08;;;;;;;5.68;100.00;103077.53;5083682;28;20404;-70
2023/12/18 05:26:25;;;;;;;32.00;18.17;;;;;;;5.67;100.00;103075.75;5060563;28;20559;-70
2023/12/18 05:28:52;;;;;;;32.33;18.95;;;;;;;5.67;100.00;103074.06;5065095;28;20049;-70
2023/12/18 05:31:20;;;;;;;35.25;18.88;;;;;;;5.68;100.00;103072.31;5066323;28;20360;-71
2023/12/18 05:33:48;;;;;;;33.88;18.45;;;;;;;5.69;100.00;103077.59;5076616;28;20040;-71
2023/12/18 05:36:15;;;;;;;30.55;17.90;;;;;;;5.71;100.00;103078.50;5063970;28;20044;-71
2023/12/18 05:38:43;;;;;;;35.38;19.05;;;;;;;5.71;100.00;103082.88;5066837;28;20040;-70
2023/12/18 05:41:10;;;;;;;34.60;18.30;;;;;;;5.74;100.00;103082.94;5067142;28;20140;-70
2023/12/18 05:43:37;;;;;;;29.55;17.33;;;;;;;5.79;100.00;103083.94;5068627;28;20123;-70
2023/12/18 05:46:04;;;;;;;40.42;20.25;;;;;;;5.88;100.00;103081.56;5062774;28;20061;-70
2023/12/18 05:48:31;;;;;;;39.70;19.02;;;;;;;5.97;100.00;103082.63;5066901;28;20055;-75
2023/12/18 05:50:59;;;;;;;35.88;18.60;;;;;;;6.03;100.00;103090.69;5079510;28;20550;-70
2023/12/18 05:53:26;;;;;;;30.27;17.73;;;;;;;6.07;100.00;103082.03;5080363;28;20040;-72
2023/12/18 05:55:53;;;;;;;32.47;18.65;;;;;;;6.10;100.00;103086.50;5063449;28;20048;-71
2023/12/18 05:58:20;;;;;;;33.65;17.83;;;;;;;6.14;100.00;103083.97;5065563;28;20130;-70
2023/12/18 06:00:47;;;;;;;33.40;16.30;;;;;;;6.21;100.00;103080.66;5067759;28;20044;-70
2023/12/18 06:03:14;;;;;;;29.70;17.80;;;;;;;6.25;100.00;103076.34;5067647;28;20040;-72
2023/12/18 06:05:41;;;;;;;29.52;17.13;;;;;;;6.28;100.00;103075.53;5058603;28;20587;-70
2023/12/18 06:08:09;;;;;;;30.30;16.05;;;;;;;6.32;100.00;103077.41;5048733;28;20597;-70
2023/12/18 06:10:36;;;;;;;32.78;17.15;;;;;;;6.34;100.00;103079.19;5066165;28;20522;-71
2023/12/18 06:13:03;;;;;;;31.20;18.55;;;;;;;6.34;100.00;103075.69;5068048;28;20072;-70
2023/12/18 06:15:30;;;;;;;34.03;18.13;;;;;;;6.33;100.00;103081.78;5067518;28;20131;-70
2023/12/18 06:17:57;;;;;;;37.03;18.35;;;;;;;6.32;100.00;103082.63;5063646;28;20094;-71
2023/12/18 06:20:24;;;;;;;33.20;18.48;;;;;;;6.26;100.00;103082.50;5067547;28;20211;-71
2023/12/18 06:22:51;;;;;;;34.03;18.98;;;;;;;6.16;100.00;103084.00;5063897;28;20056;-71
2023/12/18 06:25:18;;;;;;;32.97;17.63;;;;;;;6.07;100.00;103087.28;5064381;28;20056;-71
2023/12/18 06:27:45;;;;;;;26.73;17.75;;;;;;;5.99;100.00;103078.31;5066635;28;20092;-71
2023/12/18 06:30:15;;;;;;;33.38;18.40;;;;;;;5.93;100.00;103079.03;5067233;28;20049;-71
2023/12/18 06:32:42;;;;;;;33.22;17.92;;;;;;;5.88;100.00;103089.41;5065337;28;20109;-71
2023/12/18 06:35:10;;;;;;;33.47;18.45;;;;;;;5.86;100.00;103082.38;5074832;28;20045;-71
2023/12/18 06:37:38;;;;;;;37.88;18.10;;;;;;;5.83;100.00;103071.81;5065169;28;20421;-71
2023/12/18 06:40:07;;;;;;;36.03;17.83;;;;;;;5.81;100.00;103081.34;5062185;28;20140;-71
2023/12/18 06:42:34;;;;;;;36.88;17.08;;;;;;;5.79;100.00;103080.44;5066149;28;20117;-70
2023/12/18 06:45:02;;;;;;;30.33;17.48;;;;;;;5.79;100.00;103081.31;5063700;28;20041;-70
2023/12/18 06:47:29;;;;;;;35.50;18.42;;;;;;;5.79;100.00;103075.22;5062891;28;20060;-72
2023/12/18 06:49:57;;;;;;;31.00;17.13;;;;;;;5.77;100.00;103077.78;5067559;28;20047;-71
2023/12/18 06:52:24;;;;;;;38.00;19.52;;;;;;;5.77;100.00;103075.16;5081120;28;21138;-72
2023/12/18 06:54:51;;;;;;;30.02;17.10;;;;;;;5.79;100.00;103075.22;5067180;28;20167;-72
2023/12/18 06:57:18;;;;;;;35.10;19.00;;;;;;;5.78;100.00;103074.31;5066136;28;20101;-71
2023/12/18 06:59:45;;;;;;;34.22;18.83;;;;;;;5.76;100.00;103068.16;5067192;28;20037;-70
2023/12/18 07:02:12;;;;;;;44.63;20.05;;;;;;;5.75;100.00;103072.50;5067397;28;20052;-70
2023/12/18 07:04:39;;;;;;;36.65;18.15;;;;;;;5.75;100.00;103076.84;5081224;28;20068;-70
2023/12/18 07:07:08;;;;;;;31.17;18.08;;;;;;;5.74;100.00;103072.47;5046799;28;20052;-70
2023/12/18 07:09:35;;;;;;;37.60;17.95;;;;;;;5.72;100.00;103072.41;5061516;28;20782;-70
2023/12/18 07:12:02;;;;;;;39.78;19.13;;;;;;;5.73;100.00;103075.94;5068183;28;20044;-71
2023/12/18 07:14:29;;;;;;;34.42;18.63;;;;;;;5.72;100.00;103074.16;5067835;28;20048;-71
2023/12/18 07:16:56;;;;;;;34.25;18.73;;;;;;;5.70;100.00;103076.72;5082069;28;20055;-71
2023/12/18 07:19:23;;;;;;;32.95;18.00;;;;;;;5.70;100.00;103081.97;5065736;28;20048;-71
2023/12/18 07:21:52;;;;;;;37.55;19.17;;;;;;;5.71;100.00;103072.41;5065757;28;20048;-71
2023/12/18 07:24:19;;;;;;;39.55;19.67;;;;;;;5.73;100.00;103082.03;5067612;28;20045;-71
2023/12/18 07:26:46;;;;;;;39.83;19.92;;;;;;;5.74;100.00;103089.06;5067253;28;20597;-71
2023/12/18 07:29:13;;;;;;;44.70;19.70;;;;;;;5.73;100.00;103087.28;5079397;28;20045;-71
2023/12/18 07:31:40;;;;;;;40.15;18.55;;;;;;;5.75;100.00;103090.84;5082178;28;20049;-71
2023/12/18 07:34:07;;;;;;;34.47;19.33;;;;;;;5.77;100.00;103084.75;5067087;28;20044;-71
2023/12/18 07:36:38;;;;;;;37.85;20.83;;;;;;;5.77;100.00;103090.84;5066814;28;20091;-71
2023/12/18 07:39:09;;;;;;;33.78;17.77;;;;;;;5.78;100.00;103091.75;5062126;28;20551;-70
2023/12/18 07:41:36;;;;;;;38.40;18.75;;;;;;;5.79;100.00;103085.69;5062730;28;20519;-70
2023/12/18 07:44:03;;;;;;;35.15;19.15;;;;;;;5.80;100.00;103088.34;5063378;28;20098;-70
2023/12/18 07:46:30;;;;;;;32.58;18.58;;;;;;;5.82;100.00;103080.50;5061274;28;20120;-70
2023/12/18 07:48:59;;;;;;;37.42;19.58;;;;;;;5.83;100.00;103085.81;5062624;28;20123;-71
2023/12/18 07:51:26;;;;;;;40.10;20.20;;;;;;;5.84;100.00;103084.97;5077008;28;20294;-70
2023/12/18 07:53:53;;;;;;;35.45;20.08;;;;;;;5.86;100.00;103082.38;5060037;28;20691;-71
2023/12/18 07:56:20;;;;;;;38.47;18.70;;;;;;;5.88;100.00;103085.91;5060258;28;20048;-70
2023/12/18 07:58:48;;;;;;;37.40;19.85;;;;;;;5.88;100.00;103089.41;5058138;28;20048;-71
2023/12/18 08:01:16;;;;;;;44.88;19.52;;;;;;;5.91;100.00;103080.72;5060817;28;20573;-71
2023/12/18 08:03:47;;;;;;;36.38;18.33;;;;;;;5.94;100.00;103080.81;5062647;28;20436;-71
2023/12/18 08:06:15;;;;;;;38.55;19.50;;;;;;;5.95;100.00;103072.13;5057728;28;20040;-71
2023/12/18 08:08:45;;;;;;;32.42;18.73;;;;;;;5.98;100.00;103076.53;5076943;28;20041;-71
2023/12/18 08:11:15;;;;;;;35.22;19.45;;;;;;;6.00;100.00;103077.50;5062219;28;20052;-71
2023/12/18 08:13:42;;;;;;;35.20;19.48;;;;;;;6.01;100.00;103071.44;5063175;28;20045;-71
2023/12/18 08:16:11;;;;;;;38.45;19.75;;;;;;;6.03;100.00;103061.88;5067467;28;20097;-71
2023/12/18 08:18:42;;;;;;;40.80;18.85;;;;;;;6.08;100.00;103064.59;5082857;28;20152;-70
2023/12/18 08:21:18;;;;;;;39.47;18.40;;;;;;;6.08;100.00;103062.00;5047151;28;20061;-70
2023/12/18 08:23:45;;;;;;;38.97;18.77;;;;;;;6.09;100.00;103056.78;5059121;28;20044;-70
2023/12/18 08:26:12;;;;;;;38.92;20.30;;;;;;;6.10;100.00;103045.44;5066173;28;20048;-71
2023/12/18 08:28:44;;;;;;;35.63;19.08;;;;;;;6.13;100.00;103050.78;5069701;28;20037;-70
2023/12/18 08:31:12;;;;;;;42.60;19.55;;;;;;;6.16;100.00;103052.56;5064158;28;20079;-71
2023/12/18 08:33:41;;;;;;;41.00;21.52;;;;;;;6.18;100.00;103058.75;5066462;28;20052;-71
2023/12/18 08:36:08;;;;;;;38.42;19.63;;;;;;;6.18;100.00;103058.75;5065535;28;20900;-71
2023/12/18 08:38:35;;;;;;;38.85;20.05;;;;;;;6.18;100.00;103064.84;5065683;28;20445;-71
2023/12/18 08:41:03;;;;;;;39.50;20.38;;;;;;;6.19;100.00;103057.91;5066504;28;20037;-70
2023/12/18 08:43:30;;;;;;;37.95;18.95;;;;;;;6.23;100.00;103059.72;5067194;28;20052;-71
2023/12/18 08:45:57;;;;;;;37.63;20.02;;;;;;;6.21;100.00;103050.94;5068585;28;20044;-70
2023/12/18 08:48:24;;;;;;;34.83;20.58;;;;;;;6.21;100.00;103051.84;5067777;28;20131;-70
2023/12/18 08:50:51;;;;;;;38.78;20.30;;;;;;;6.24;100.00;103050.16;5065044;28;20045;-70
2023/12/18 08:53:21;;;;;;;36.42;20.83;;;;;;;6.25;100.00;103055.41;5059644;28;20661;-71
2023/12/18 08:55:48;;;;;;;36.63;19.02;;;;;;;6.25;100.00;103044.06;5048698;28;20668;-70
2023/12/18 08:58:17;;;;;;;47.85;22.10;;;;;;;6.20;100.00;103042.19;5059516;28;20055;-71
2023/12/18 09:00:44;;;;;;;37.50;20.13;;;;;;;6.21;100.00;103036.13;5061966;28;20041;-70
2023/12/18 09:03:12;;;;;;;36.85;20.13;;;;;;;6.24;100.00;103047.53;5060436;28;20496;-71
2023/12/18 09:05:48;;;;;;;38.15;20.17;;;;;;;6.26;100.00;103037.97;5065172;28;20066;-70
2023/12/18 09:08:18;;;;;;;41.08;21.13;;;;;;;6.28;100.00;103036.25;5063473;28;20572;-71
2023/12/18 09:10:45;;;;;;;41.72;20.15;;;;;;;6.33;100.00;103045.97;5078036;28;20538;-71
2023/12/18 09:13:12;;;;;;;35.50;19.30;;;;;;;6.35;100.00;103044.28;5068909;28;20131;-71
2023/12/18 09:15:40;;;;;;;37.38;20.67;;;;;;;6.37;100.00;103034.72;5068993;28;20803;-71
2023/12/18 09:18:08;;;;;;;36.58;19.38;;;;;;;6.40;100.00;103038.28;5066585;28;20041;-70
2023/12/18 09:20:35;;;;;;;39.67;20.60;;;;;;;6.41;100.00;103040.91;5068074;28;20045;-70
2023/12/18 09:23:08;;;;;;;35.80;19.73;;;;;;;6.47;100.00;103037.56;5063844;28;20056;-72
2023/12/18 09:25:39;;;;;;;37.22;19.38;;;;;;;6.48;100.00;103040.19;5062543;28;20041;-71
2023/12/18 09:28:06;;;;;;;33.38;18.80;;;;;;;6.49;100.00;103041.09;5060903;28;20134;-70
2023/12/18 09:30:33;;;;;;;36.25;18.50;;;;;;;6.48;100.00;103048.06;5063520;28;20478;-70
2023/12/18 09:33:00;;;;;;;35.03;19.60;;;;;;;6.50;100.00;103050.72;5063787;28;20422;-71
2023/12/18 09:35:27;;;;;;;31.50;18.38;;;;;;;6.49;100.00;103054.19;5078004;28;20052;-71
2023/12/18 09:37:54;;;;;;;33.72;18.98;;;;;;;6.48;100.00;103050.69;5064259;28;20136;-71
2023/12/18 09:40:21;;;;;;;35.20;18.60;;;;;;;6.51;100.00;103058.63;5064797;28;20048;-70
2023/12/18 09:42:55;;;;;;;39.25;20.67;;;;;;;6.48;100.00;103055.91;5063565;28;20732;-70
2023/12/18 09:45:23;;;;;;;43.93;26.67;;;;;;;6.51;100.00;103060.38;5062901;28;20056;-71
2023/12/18 09:47:52;;;;;;;38.90;22.90;;;;;;;6.49;100.00;103057.69;5095584;28;20067;-70
2023/12/18 09:50:20;;;;;;;37.10;22.48;;;;;;;6.49;100.00;103048.97;5063593;28;20047;-71
2023/12/18 09:53:08;;;;;;;35.13;22.35;;;;;;;6.57;100.00;103046.47;5078854;28;20056;-73
2023/12/18 09:55:36;;;;;;;61.65;32.03;;;;;;;6.63;100.00;103044.00;5053822;28;20098;-70
2023/12/18 09:58:05;;;;;;;39.35;22.20;;;;;;;6.68;100.00;103047.59;5062853;28;20059;-71
2023/12/18 10:00:32;;;;;;;38.38;27.48;;;;;;;6.71;100.00;103045.06;5059320;28;20033;-72
2023/12/18 10:03:00;;;;;;;40.78;25.75;;;;;;;6.71;100.00;103044.19;5080151;28;20042;-70
2023/12/18 10:05:27;;;;;;;36.17;22.27;;;;;;;6.68;100.00;103034.50;5062306;28;20579;-70
2023/12/18 10:07:58;;;;;;;43.25;25.05;;;;;;;6.70;100.00;103034.56;5049133;28;20041;-70
2023/12/18 10:10:26;;;;;;;42.67;30.92;;;;;;;6.73;100.00;103038.13;5082411;28;20382;-71
2023/12/18 10:12:53;;;;;;;38.50;23.85;;;;;;;6.79;100.00;103030.38;5063231;28;20075;-71
2023/12/18 10:15:21;;;;;;;39.78;22.08;;;;;;;6.87;100.00;103019.16;5059512;28;20048;-71
2023/12/18 10:17:51;;;;;;;54.85;34.58;;;;;;;6.94;100.00;103024.53;5062668;28;20068;-71
2023/12/18 10:20:18;;;;;;;60.00;38.58;;;;;;;6.99;100.00;103022.91;5062956;28;20044;-71
2023/12/18 10:22:45;;;;;;;56.30;40.22;;;;;;;7.06;100.00;103007.28;5063549;28;20052;-71
2023/12/18 10:25:16;;;;;;;98.95;78.10;;;;;;;7.08;100.00;103006.44;5050645;28;20044;-71
2023/12/18 10:27:45;;;;;;;39.08;27.08;;;;;;;7.10;100.00;103002.13;5071477;28;20101;-71
2023/12/18 10:30:13;;;;;;;43.00;27.02;;;;;;;7.06;100.00;103007.28;5054530;28;20056;-71
2023/12/18 10:32:46;;;;;;;37.85;21.58;;;;;;;6.98;100.00;103000.16;5039543;28;20559;-71
2023/12/18 10:35:14;;;;;;;32.00;18.05;;;;;;;6.92;100.00;103005.25;5056110;28;20041;-71
2023/12/18 10:37:53;;;;;;;43.97;28.35;;;;;;;6.94;100.00;103008.81;5079167;28;20123;-71
2023/12/18 10:40:23;;;;;;;68.13;54.88;;;;;;;6.96;100.00;103003.63;5077435;28;20368;-71
2023/12/18 10:43:18;;;;;;;40.95;26.83;;;;;;;7.03;100.00;103009.84;5079070;28;20116;-71
2023/12/18 10:45:46;;;;;;;32.85;19.17;;;;;;;7.01;100.00;103004.56;5055926;28;20116;-73
2023/12/18 10:48:17;;;;;;;37.38;28.10;;;;;;;7.00;100.00;102994.94;5060966;28;20040;-70
2023/12/18 10:50:51;;;;;;;31.40;18.55;;;;;;;7.01;100.00;103001.94;5057980;28;20139;-70
2023/12/18 10:53:18;;;;;;;31.23;19.13;;;;;;;6.98;100.00;102989.66;5062901;28;20051;-70
2023/12/18 10:55:48;;;;;;;31.40;17.58;;;;;;;7.01;100.00;102980.97;5060039;28;20036;-70
2023/12/18 10:58:20;;;;;;;94.60;48.05;;;;;;;7.03;100.00;102979.25;5061627;28;20048;-71
2023/12/18 11:00:49;;;;;;;39.42;22.17;;;;;;;7.06;100.00;102979.34;5063381;28;20492;-70
2023/12/18 11:03:19;;;;;;;33.22;21.02;;;;;;;7.05;100.00;102977.56;5078508;28;20056;-71
2023/12/18 11:05:49;;;;;;;49.42;30.88;;;;;;;7.07;100.00;102973.19;5055217;28;20125;-70
2023/12/18 11:08:16;;;;;;;38.50;25.67;;;;;;;7.09;100.00;102970.63;5078866;28;20044;-70
2023/12/18 11:10:43;;;;;;;34.65;20.38;;;;;;;7.11;100.00;102969.78;5075392;28;20047;-70
2023/12/18 11:13:27;;;;;;;33.50;17.05;;;;;;;7.11;100.00;102961.91;5078997;28;20419;-69